Terminal Aerodrome Forecast
Issued by NWS Bismarck, ND

Home | Current Version | Previous Version | Text Only | Print | Product List | Glossary Off
Versions: 1 2 3 4 5 6 7 8 9 10 11 12 13 14 15 16 17 18 19 20 21 22 23 24 25 26 27 28 29

000
FTUS43 KBIS 261900 AAA
TAFBIS
TAF AMD
KBIS 261931Z 2620/2718 07007KT P6SM SCT025 BKN035
     FM270100 11006KT P6SM BKN060
     FM271100 13010KT 4SM -SN BKN015 OVC025
      TEMPO 2713/2717 2SM -SN BR SCT006 OVC010=

USA.gov is the U.S. government's official web portal to all federal, state and local government web resources and services.